Time;durP1;ratioP1;P1;durP2;ratioP2;P2;SDS_P1;SDS_P2;PMS_P1;PMS_P2;Temp;Humidity;BMP_temperature;BMP_pressure;BME280_temperature;BME280_humidity;BME280_pressure;Samples;Min_cycle;Max_cycle;Signal;HPM_P1;HPM_P2
2022/08/21 00:00:49;;;;;;;22.60;9.85;;;15.80;99.90;;;;;;4999255;28;20034;-64
2022/08/21 00:03:15;;;;;;;20.50;10.27;;;15.80;99.90;;;;;;5004870;28;20025;-65
2022/08/21 00:05:46;;;;;;;19.08;9.15;;;15.80;99.90;;;;;;5007923;28;20108;-65
2022/08/21 00:08:12;;;;;;;16.77;8.68;;;15.70;99.90;;;;;;5006822;28;20025;-69
2022/08/21 00:10:40;;;;;;;22.77;11.38;;;15.70;99.90;;;;;;5004348;28;20064;-68
2022/08/21 00:13:06;;;;;;;16.25;10.07;;;15.60;99.90;;;;;;5004763;28;20025;-66
2022/08/21 00:15:35;;;;;;;17.58;9.50;;;15.60;99.90;;;;;;5008850;28;20041;-63
2022/08/21 00:18:01;;;;;;;19.90;8.73;;;15.50;99.90;;;;;;4999897;28;20034;-67
2022/08/21 00:20:27;;;;;;;17.15;8.75;;;15.40;99.90;;;;;;4997275;28;20034;-65
2022/08/21 00:22:52;;;;;;;20.73;8.95;;;15.40;99.90;;;;;;5007923;28;20040;-70
2022/08/21 00:25:19;;;;;;;15.23;8.10;;;15.40;99.90;;;;;;4998586;28;20566;-63
2022/08/21 00:27:46;;;;;;;24.38;9.15;;;15.40;99.90;;;;;;5007503;28;20053;-65
2022/08/21 00:30:13;;;;;;;19.75;7.95;;;15.30;99.90;;;;;;5011484;28;20026;-63
2022/08/21 00:32:40;;;;;;;17.50;7.50;;;15.40;99.90;;;;;;5013002;28;20034;-66
2022/08/21 00:35:11;;;;;;;13.18;7.45;;;15.30;99.90;;;;;;5009177;28;20068;-64
2022/08/21 00:37:36;;;;;;;15.75;8.68;;;15.20;99.90;;;;;;5005962;28;20124;-63
2022/08/21 00:40:03;;;;;;;21.17;8.65;;;15.30;99.90;;;;;;5008488;28;20126;-68
2022/08/21 00:42:30;;;;;;;13.38;8.18;;;15.20;99.90;;;;;;5002452;28;20034;-64
2022/08/21 00:44:56;;;;;;;18.48;9.20;;;15.10;99.90;;;;;;5012712;28;20495;-62
2022/08/21 00:47:21;;;;;;;16.95;8.57;;;15.10;99.90;;;;;;5003318;28;20046;-63
2022/08/21 00:49:47;;;;;;;19.00;9.45;;;15.00;99.90;;;;;;5003590;28;20112;-63
2022/08/21 00:52:19;;;;;;;14.90;8.82;;;15.00;99.90;;;;;;5012331;28;20029;-64
2022/08/21 00:54:45;;;;;;;21.85;9.60;;;14.90;99.90;;;;;;5007105;28;20073;-64
2022/08/21 00:57:16;;;;;;;22.67;11.07;;;15.00;99.90;;;;;;5004331;28;20045;-63
2022/08/21 00:59:45;;;;;;;13.90;8.50;;;15.00;99.90;;;;;;5004978;28;20084;-64
2022/08/21 01:02:12;;;;;;;17.67;9.43;;;15.00;99.90;;;;;;5002710;28;20034;-66
2022/08/21 01:04:38;;;;;;;19.95;9.52;;;15.00;99.90;;;;;;5003813;28;20030;-64
2022/08/21 01:07:03;;;;;;;20.08;10.23;;;15.00;99.90;;;;;;5006647;28;20060;-64
2022/08/21 01:09:29;;;;;;;14.95;9.13;;;14.90;99.90;;;;;;5002820;28;20033;-63
2022/08/21 01:11:55;;;;;;;28.95;9.80;;;14.90;99.90;;;;;;4998168;28;20057;-64
2022/08/21 01:14:21;;;;;;;17.98;9.10;;;14.90;99.90;;;;;;5000831;28;20076;-63
2022/08/21 01:16:51;;;;;;;19.45;10.43;;;14.90;99.90;;;;;;5006647;28;20099;-63
2022/08/21 01:19:18;;;;;;;14.07;9.27;;;14.80;99.90;;;;;;5008922;28;20147;-66
2022/08/21 01:21:44;;;;;;;18.05;10.90;;;14.80;99.90;;;;;;4999046;28;20033;-65
2022/08/21 01:24:10;;;;;;;16.45;9.63;;;14.80;99.90;;;;;;5008774;28;20099;-65
2022/08/21 01:26:36;;;;;;;25.58;10.68;;;14.80;99.90;;;;;;4998893;28;20041;-64
2022/08/21 01:29:13;;;;;;;18.17;10.00;;;14.80;99.90;;;;;;5003260;28;20081;-63
2022/08/21 01:31:39;;;;;;;16.42;9.60;;;14.80;99.90;;;;;;5002176;28;20236;-64
2022/08/21 01:34:05;;;;;;;24.00;11.50;;;14.70;99.90;;;;;;5004593;28;20034;-65
2022/08/21 01:36:31;;;;;;;20.33;10.55;;;14.70;99.90;;;;;;5006235;28;20487;-66
2022/08/21 01:38:56;;;;;;;25.90;10.30;;;14.70;99.90;;;;;;5003948;28;20395;-64
2022/08/21 01:41:22;;;;;;;17.10;10.27;;;14.70;99.90;;;;;;5010340;28;20033;-65
2022/08/21 01:43:48;;;;;;;15.77;9.93;;;14.60;99.90;;;;;;5003018;28;20053;-64
2022/08/21 01:46:14;;;;;;;22.33;10.75;;;14.60;99.90;;;;;;5003177;28;20052;-62
2022/08/21 01:48:41;;;;;;;18.98;10.02;;;14.60;99.90;;;;;;5005671;28;20030;-65
2022/08/21 01:51:06;;;;;;;18.73;9.52;;;14.60;99.90;;;;;;5008627;28;20039;-63
2022/08/21 01:53:35;;;;;;;20.02;10.02;;;14.50;99.90;;;;;;5006901;28;20109;-63
2022/08/21 01:56:02;;;;;;;17.65;10.18;;;14.50;99.90;;;;;;5000906;28;20419;-64
2022/08/21 01:58:27;;;;;;;15.85;9.93;;;14.50;99.90;;;;;;5004940;28;20040;-65
2022/08/21 02:00:53;;;;;;;26.08;11.60;;;14.50;99.90;;;;;;4999227;28;20551;-63
2022/08/21 02:03:19;;;;;;;18.25;11.13;;;14.50;99.90;;;;;;5012065;28;20034;-64
2022/08/21 02:05:45;;;;;;;21.30;10.90;;;14.40;99.90;;;;;;5001899;28;20041;-64
2022/08/21 02:08:11;;;;;;;23.08;10.60;;;14.40;99.90;;;;;;5003717;28;20105;-61
2022/08/21 02:10:36;;;;;;;28.08;12.88;;;14.30;99.90;;;;;;5008425;28;20113;-65
2022/08/21 02:13:03;;;;;;;15.80;11.68;;;14.30;99.90;;;;;;5005257;28;20407;-65
2022/08/21 02:15:30;;;;;;;22.80;11.30;;;14.30;99.90;;;;;;5003293;28;20026;-64
2022/08/21 02:17:59;;;;;;;19.17;11.75;;;14.30;99.90;;;;;;5010262;28;20101;-63
2022/08/21 02:20:30;;;;;;;18.20;11.23;;;14.30;99.90;;;;;;5003663;28;20045;-66
2022/08/21 02:22:56;;;;;;;21.67;11.73;;;14.30;99.90;;;;;;5008231;28;20021;-64
2022/08/21 02:25:24;;;;;;;25.35;10.93;;;14.20;99.90;;;;;;5006078;28;20506;-63
2022/08/21 02:27:49;;;;;;;22.40;11.40;;;14.20;99.90;;;;;;5008974;28;20030;-64
2022/08/21 02:30:19;;;;;;;29.80;12.30;;;14.20;99.90;;;;;;5009455;28;20030;-65
2022/08/21 02:32:44;;;;;;;19.17;10.85;;;14.20;99.90;;;;;;5007776;28;20030;-64
2022/08/21 02:35:11;;;;;;;19.70;11.18;;;14.10;99.90;;;;;;5001797;28;20550;-64
2022/08/21 02:38:03;;;;;;;22.73;10.85;;;14.10;99.90;;;;;;5008579;28;20041;-63
2022/08/21 02:40:32;;;;;;;30.52;11.82;;;14.10;99.90;;;;;;5003999;28;20030;-65
2022/08/21 02:42:59;;;;;;;24.20;11.02;;;14.00;99.90;;;;;;5001425;28;20030;-68
2022/08/21 02:45:25;;;;;;;19.50;10.82;;;14.10;99.90;;;;;;5006248;28;20037;-63
2022/08/21 02:47:56;;;;;;;24.83;11.85;;;14.00;99.90;;;;;;5010278;28;20515;-63
2022/08/21 02:50:28;;;;;;;23.00;11.43;;;14.00;99.90;;;;;;5014318;28;20026;-65
2022/08/21 02:52:55;;;;;;;21.42;11.38;;;13.90;99.90;;;;;;5006103;28;20042;-65
2022/08/21 02:55:23;;;;;;;20.20;11.43;;;13.90;99.90;;;;;;5006737;28;20025;-65
2022/08/21 02:57:48;;;;;;;23.02;12.32;;;13.90;99.90;;;;;;5008187;28;20411;-64
2022/08/21 03:00:15;;;;;;;20.63;11.60;;;13.90;99.90;;;;;;5012435;28;20080;-65
2022/08/21 03:02:41;;;;;;;20.23;11.10;;;13.80;99.90;;;;;;4996317;28;20027;-65
2022/08/21 03:05:09;;;;;;;18.02;12.05;;;13.80;99.90;;;;;;5010850;28;20061;-66
2022/08/21 03:07:35;;;;;;;22.40;11.13;;;13.80;99.90;;;;;;5005347;28;20653;-64
2022/08/21 03:10:01;;;;;;;20.27;12.20;;;13.80;99.90;;;;;;5007016;28;20120;-65
2022/08/21 03:12:26;;;;;;;19.20;11.25;;;13.80;99.90;;;;;;5001769;28;20116;-64
2022/08/21 03:14:52;;;;;;;17.58;10.50;;;13.80;99.90;;;;;;5006647;28;20080;-63
2022/08/21 03:17:18;;;;;;;22.48;12.05;;;13.80;99.90;;;;;;5009287;28;20053;-62
2022/08/21 03:19:43;;;;;;;25.55;13.82;;;13.80;99.90;;;;;;5009000;28;20042;-62
2022/08/21 03:22:09;;;;;;;21.73;11.60;;;13.70;99.90;;;;;;5035100;22;20162;-61
2022/08/21 03:24:34;;;;;;;21.00;12.57;;;13.70;99.90;;;;;;5026656;28;20029;-61
2022/08/21 03:27:00;;;;;;;26.48;12.70;;;13.70;99.90;;;;;;5033122;28;20042;-60
2022/08/21 03:29:26;;;;;;;28.88;13.70;;;13.70;99.90;;;;;;5028314;28;20032;-63
2022/08/21 03:31:53;;;;;;;21.10;11.77;;;13.70;99.90;;;;;;5024616;28;20026;-60
2022/08/21 03:34:19;;;;;;;36.22;13.05;;;13.60;99.90;;;;;;5009004;28;20033;-59
2022/08/21 03:36:44;;;;;;;22.27;12.82;;;13.60;99.90;;;;;;5011566;28;20038;-60
2022/08/21 03:39:10;;;;;;;23.05;12.60;;;13.60;99.90;;;;;;5011205;28;20407;-61
2022/08/21 03:41:35;;;;;;;19.20;12.32;;;13.60;99.90;;;;;;5017627;28;20462;-60
2022/08/21 03:44:01;;;;;;;26.05;13.43;;;13.50;99.90;;;;;;5010616;28;20045;-61
2022/08/21 03:46:27;;;;;;;27.52;13.95;;;13.50;99.90;;;;;;5009713;28;20022;-58
2022/08/21 03:48:53;;;;;;;28.48;12.98;;;13.40;99.90;;;;;;5008514;28;20482;-60
2022/08/21 03:51:19;;;;;;;29.40;14.68;;;13.40;99.90;;;;;;5012019;28;20117;-61
2022/08/21 03:53:44;;;;;;;25.50;14.23;;;13.50;99.90;;;;;;5011325;28;20427;-61
2022/08/21 03:56:10;;;;;;;31.17;14.95;;;13.50;99.90;;;;;;5009466;28;20025;-61
2022/08/21 03:58:38;;;;;;;28.13;14.70;;;13.50;99.90;;;;;;5010838;28;20450;-60
2022/08/21 04:01:06;;;;;;;26.98;13.85;;;13.50;99.90;;;;;;5010239;28;20033;-61
2022/08/21 04:03:33;;;;;;;29.13;13.75;;;13.50;99.90;;;;;;5017172;28;20087;-61
2022/08/21 04:05:59;;;;;;;34.58;14.25;;;13.50;99.90;;;;;;5010689;28;20723;-61
2022/08/21 04:08:24;;;;;;;27.70;15.57;;;13.50;99.90;;;;;;5012406;28;20026;-61
2022/08/21 04:10:53;;;;;;;30.55;16.40;;;13.60;99.90;;;;;;5014363;28;20041;-59
2022/08/21 04:13:20;;;;;;;23.63;15.85;;;13.50;99.90;;;;;;5013495;28;20407;-60
2022/08/21 04:15:46;;;;;;;31.25;16.42;;;13.50;99.90;;;;;;5012779;28;20030;-60
2022/08/21 04:18:12;;;;;;;28.10;15.63;;;13.60;99.90;;;;;;5009666;28;20168;-60
2022/08/21 04:20:39;;;;;;;28.88;15.65;;;13.50;99.90;;;;;;5008315;28;20025;-61
2022/08/21 04:23:05;;;;;;;29.27;17.52;;;13.50;99.90;;;;;;5006029;28;20072;-61
2022/08/21 04:25:31;;;;;;;26.58;15.60;;;13.50;99.90;;;;;;5013991;28;20025;-60
2022/08/21 04:27:57;;;;;;;23.58;15.23;;;13.40;99.90;;;;;;5004158;28;20026;-61
2022/08/21 04:30:23;;;;;;;29.35;16.70;;;13.40;99.90;;;;;;5008791;28;20025;-61
2022/08/21 04:32:50;;;;;;;28.02;16.83;;;13.30;99.90;;;;;;5004210;28;20458;-60
2022/08/21 04:35:17;;;;;;;26.73;16.38;;;13.20;99.90;;;;;;5003524;28;20071;-61
2022/08/21 04:37:42;;;;;;;23.55;15.38;;;13.20;99.90;;;;;;5009257;28;20120;-61
2022/08/21 04:40:11;;;;;;;24.90;16.58;;;13.10;99.90;;;;;;5009192;28;20164;-60
2022/08/21 04:42:51;;;;;;;30.05;16.35;;;13.10;99.90;;;;;;5010990;28;20038;-61
2022/08/21 04:45:20;;;;;;;34.20;17.00;;;13.10;99.90;;;;;;5013556;28;20026;-60
2022/08/21 04:47:47;;;;;;;30.02;17.10;;;13.20;99.90;;;;;;5006632;28;20511;-60
2022/08/21 04:50:13;;;;;;;31.70;18.85;;;13.30;99.90;;;;;;5007966;28;20080;-60
2022/08/21 04:52:38;;;;;;;31.52;17.27;;;13.30;99.90;;;;;;5010277;28;20515;-59
2022/08/21 04:55:04;;;;;;;28.60;16.70;;;13.30;99.90;;;;;;5009078;28;20084;-62
2022/08/21 04:57:30;;;;;;;24.08;16.35;;;13.40;99.90;;;;;;5009253;28;20152;-60
2022/08/21 04:59:56;;;;;;;27.55;15.48;;;13.40;99.90;;;;;;5006897;28;20153;-64
2022/08/21 05:02:21;;;;;;;27.48;14.45;;;13.30;99.90;;;;;;5009078;28;20037;-60
2022/08/21 05:04:50;;;;;;;26.88;15.10;;;13.40;99.90;;;;;;5009005;28;20037;-60
2022/08/21 05:07:21;;;;;;;26.92;15.82;;;13.40;99.90;;;;;;5008207;28;20046;-62
2022/08/21 05:09:46;;;;;;;27.23;13.75;;;13.50;99.90;;;;;;5013303;28;20018;-60
2022/08/21 05:12:12;;;;;;;24.55;13.65;;;13.40;99.90;;;;;;5008676;28;20395;-60
2022/08/21 05:14:38;;;;;;;23.42;14.32;;;13.40;99.90;;;;;;5010687;28;20483;-59
2022/08/21 05:17:05;;;;;;;30.95;15.65;;;13.40;99.90;;;;;;5017220;28;20080;-60
2022/08/21 05:19:30;;;;;;;29.55;15.40;;;13.40;99.90;;;;;;5011099;28;20017;-59
2022/08/21 05:21:56;;;;;;;23.50;14.82;;;13.40;99.90;;;;;;5014251;28;20032;-60
2022/08/21 05:24:21;;;;;;;25.73;14.95;;;13.50;99.90;;;;;;5013127;28;20033;-61
2022/08/21 05:26:47;;;;;;;22.58;12.65;;;13.50;99.90;;;;;;5009679;28;20116;-62
2022/08/21 05:29:14;;;;;;;21.65;13.20;;;13.50;99.90;;;;;;5012380;28;20431;-62
2022/08/21 05:31:40;;;;;;;19.70;13.75;;;13.60;99.90;;;;;;5008306;28;20026;-63
2022/08/21 05:34:06;;;;;;;21.70;14.50;;;13.60;99.90;;;;;;5009565;28;20148;-62
2022/08/21 05:36:31;;;;;;;23.25;14.30;;;13.70;99.90;;;;;;5007194;28;20033;-61
2022/08/21 05:38:57;;;;;;;21.75;12.32;;;13.70;99.90;;;;;;5013789;28;20105;-60
2022/08/21 05:41:23;;;;;;;20.77;12.38;;;13.80;99.90;;;;;;5012473;28;20030;-60
2022/08/21 05:43:49;;;;;;;25.20;13.65;;;13.90;99.90;;;;;;5013433;28;20041;-63
2022/08/21 05:46:14;;;;;;;17.38;11.32;;;14.00;99.90;;;;;;5020325;28;20017;-61
2022/08/21 05:48:40;;;;;;;20.33;11.25;;;14.10;99.90;;;;;;5013977;28;20049;-63
2022/08/21 05:51:08;;;;;;;20.25;11.80;;;14.10;99.90;;;;;;5016138;28;20065;-62
2022/08/21 05:53:35;;;;;;;14.82;10.32;;;14.20;99.90;;;;;;5009253;28;20040;-61
2022/08/21 05:56:03;;;;;;;19.55;11.50;;;14.30;99.90;;;;;;5004471;28;20630;-60
2022/08/21 05:58:29;;;;;;;22.80;10.30;;;14.40;99.90;;;;;;5014717;28;20488;-60
2022/08/21 06:00:55;;;;;;;16.55;10.23;;;14.40;99.90;;;;;;5010953;28;20037;-61
2022/08/21 06:03:24;;;;;;;20.70;10.40;;;14.50;99.90;;;;;;5015527;28;20132;-61
2022/08/21 06:05:50;;;;;;;18.20;10.65;;;14.60;99.90;;;;;;5009609;28;20064;-61
2022/08/21 06:08:18;;;;;;;21.88;10.32;;;14.70;99.90;;;;;;5008779;28;20057;-61
2022/08/21 06:10:44;;;;;;;18.15;9.30;;;14.80;99.90;;;;;;5008882;28;20109;-61
2022/08/21 06:13:11;;;;;;;16.52;9.18;;;14.90;99.90;;;;;;5009420;28;20495;-60
2022/08/21 06:15:37;;;;;;;19.08;9.57;;;15.00;99.90;;;;;;5010995;28;20029;-62
2022/08/21 06:18:03;;;;;;;14.40;9.18;;;15.10;99.90;;;;;;5014725;28;20033;-62
2022/08/21 06:20:29;;;;;;;16.48;9.35;;;15.10;99.90;;;;;;5012745;28;20030;-62
2022/08/21 06:22:55;;;;;;;16.67;8.77;;;15.20;99.90;;;;;;5011536;28;20084;-61
2022/08/21 06:25:20;;;;;;;18.05;9.68;;;15.30;99.90;;;;;;5016673;28;20033;-61
2022/08/21 06:27:46;;;;;;;16.20;7.82;;;15.40;99.90;;;;;;5018956;28;20393;-62
2022/08/21 06:30:13;;;;;;;17.33;8.98;;;15.50;99.90;;;;;;5010961;28;20080;-62
2022/08/21 06:32:38;;;;;;;20.77;9.73;;;15.60;99.90;;;;;;5012000;28;20033;-61
2022/08/21 06:35:05;;;;;;;12.32;7.38;;;15.70;99.90;;;;;;5002645;28;20041;-61
2022/08/21 06:37:31;;;;;;;19.60;7.75;;;15.80;99.90;;;;;;5009193;28;20431;-60
2022/08/21 06:39:57;;;;;;;15.85;7.05;;;15.90;99.90;;;;;;5006473;28;20508;-61
2022/08/21 06:42:22;;;;;;;17.35;7.70;;;16.00;99.90;;;;;;5009000;28;20072;-61
2022/08/21 06:44:48;;;;;;;13.75;6.20;;;16.10;99.90;;;;;;5002105;28;20034;-61
2022/08/21 06:47:13;;;;;;;11.52;6.45;;;16.10;99.90;;;;;;5007561;28;20026;-61
2022/08/21 06:49:39;;;;;;;10.80;6.55;;;16.20;99.90;;;;;;5003649;28;20042;-61
2022/08/21 06:52:10;;;;;;;11.00;5.78;;;16.30;99.90;;;;;;5005949;28;20026;-61
2022/08/21 06:54:35;;;;;;;13.00;5.70;;;16.40;99.90;;;;;;5005224;28;20067;-62
2022/08/21 06:57:01;;;;;;;10.60;5.40;;;16.60;99.90;;;;;;5009211;28;20062;-61
2022/08/21 06:59:26;;;;;;;12.25;4.63;;;16.60;99.90;;;;;;5016084;28;20046;-61
2022/08/21 07:01:52;;;;;;;14.75;5.70;;;16.70;99.90;;;;;;5003527;28;20037;-61
2022/08/21 07:04:18;;;;;;;11.25;4.22;;;16.80;99.90;;;;;;5014709;28;20029;-61
2022/08/21 07:06:43;;;;;;;11.20;5.03;;;16.90;99.90;;;;;;5004794;28;20037;-62
2022/08/21 07:09:10;;;;;;;17.15;6.15;;;17.00;99.90;;;;;;5014748;28;20033;-62
2022/08/21 07:11:36;;;;;;;12.63;4.57;;;17.10;99.90;;;;;;5006366;28;20018;-62
2022/08/21 07:14:02;;;;;;;10.35;4.05;;;17.20;99.90;;;;;;5007971;28;20407;-62
2022/08/21 07:16:28;;;;;;;9.60;4.28;;;17.30;99.90;;;;;;5018791;28;20032;-62
2022/08/21 07:18:53;;;;;;;12.82;3.75;;;17.40;99.90;;;;;;5008884;28;20026;-61
2022/08/21 07:21:19;;;;;;;9.80;3.35;;;17.60;99.90;;;;;;5014657;28;20460;-62
2022/08/21 07:23:48;;;;;;;10.88;2.92;;;17.70;99.90;;;;;;5001848;28;20037;-61
2022/08/21 07:26:16;;;;;;;10.43;3.40;;;18.00;99.90;;;;;;5003428;28;20072;-62
2022/08/21 07:28:41;;;;;;;7.43;2.60;;;18.10;99.90;;;;;;5005308;28;20043;-61
2022/08/21 07:31:10;;;;;;;8.85;2.70;;;18.10;99.90;;;;;;5017065;28;20101;-61
2022/08/21 07:33:36;;;;;;;7.57;2.47;;;18.20;99.90;;;;;;5012198;28;20042;-61
2022/08/21 07:36:02;;;;;;;12.45;2.67;;;18.20;99.90;;;;;;4992957;28;20038;-61
2022/08/21 07:38:28;;;;;;;15.50;3.17;;;18.30;99.90;;;;;;5001344;28;20530;-60
2022/08/21 07:40:56;;;;;;;9.38;2.60;;;18.50;99.90;;;;;;5024245;28;20117;-61
2022/08/21 07:43:22;;;;;;;7.40;2.35;;;18.50;99.90;;;;;;5007690;28;20018;-62
2022/08/21 07:45:49;;;;;;;8.10;2.22;;;18.70;99.90;;;;;;5011971;28;20021;-61
2022/08/21 07:48:15;;;;;;;14.93;3.45;;;18.90;99.90;;;;;;5017953;28;20018;-59
2022/08/21 07:50:41;;;;;;;9.68;2.50;;;19.00;99.90;;;;;;5008822;28;20018;-59
2022/08/21 07:53:07;;;;;;;6.70;2.05;;;19.00;99.90;;;;;;5007222;28;20049;-61
2022/08/21 07:55:33;;;;;;;14.55;2.00;;;19.00;99.90;;;;;;5010200;28;20388;-61
2022/08/21 07:57:59;;;;;;;9.93;1.85;;;19.10;99.90;;;;;;5008839;28;20510;-62
2022/08/21 08:00:26;;;;;;;10.27;2.10;;;19.20;99.90;;;;;;5006395;28;20065;-61
2022/08/21 08:02:53;;;;;;;11.48;1.63;;;19.30;99.90;;;;;;5005869;28;20103;-56
2022/08/21 08:05:22;;;;;;;3.25;1.80;;;19.40;99.90;;;;;;5009197;28;20026;-56
2022/08/21 08:07:48;;;;;;;9.77;2.25;;;19.50;99.90;;;;;;5003278;28;20022;-58
2022/08/21 08:10:14;;;;;;;10.02;2.20;;;19.60;99.90;;;;;;5008607;28;20032;-58
2022/08/21 08:12:41;;;;;;;8.80;2.22;;;19.60;99.90;;;;;;5012362;28;20029;-58
2022/08/21 08:15:09;;;;;;;6.72;1.33;;;19.70;99.90;;;;;;5005898;28;20065;-57
2022/08/21 08:17:35;;;;;;;7.18;1.65;;;19.80;99.90;;;;;;5001010;28;20358;-59
2022/08/21 08:20:02;;;;;;;5.63;1.40;;;19.90;99.90;;;;;;5007114;28;20500;-59
2022/08/21 08:22:27;;;;;;;8.10;1.60;;;20.10;99.90;;;;;;5004125;28;20562;-56
2022/08/21 08:24:54;;;;;;;7.30;1.58;;;20.20;99.90;;;;;;5004285;28;20022;-56
2022/08/21 08:27:20;;;;;;;13.38;1.80;;;20.30;99.90;;;;;;5008895;28;20022;-58
2022/08/21 08:29:47;;;;;;;13.68;1.65;;;20.30;99.90;;;;;;5009439;28;20084;-58
2022/08/21 08:32:13;;;;;;;10.18;1.88;;;20.50;99.90;;;;;;4999150;28;20026;-57
2022/08/21 08:34:39;;;;;;;10.00;1.60;;;20.60;99.90;;;;;;5007503;28;20030;-57
2022/08/21 08:37:07;;;;;;;13.30;1.95;;;20.60;99.90;;;;;;5006323;28;20022;-58
2022/08/21 08:39:33;;;;;;;7.53;1.63;;;20.70;99.90;;;;;;5010501;28;20104;-56
2022/08/21 08:42:09;;;;;;;9.07;2.00;;;20.80;99.90;;;;;;5009111;28;20121;-56
2022/08/21 08:44:36;;;;;;;7.22;1.40;;;21.00;99.90;;;;;;5003648;28;20029;-57
2022/08/21 08:47:04;;;;;;;6.75;1.60;;;21.00;99.90;;;;;;5008013;28;20079;-55
2022/08/21 08:49:34;;;;;;;9.93;1.45;;;20.90;99.90;;;;;;5008482;28;20025;-58
2022/08/21 08:52:15;;;;;;;7.50;1.77;;;21.00;99.90;;;;;;5005004;28;20076;-55
2022/08/21 08:54:49;;;;;;;8.05;2.00;;;21.10;99.90;;;;;;5004765;28;20029;-55
2022/08/21 08:57:17;;;;;;;9.73;1.98;;;21.20;99.90;;;;;;5004295;28;20030;-58
2022/08/21 08:59:51;;;;;;;10.45;1.92;;;21.20;99.90;;;;;;5001195;28;20041;-57
2022/08/21 09:02:18;;;;;;;5.82;2.08;;;21.30;99.90;;;;;;5006495;28;20026;-58
2022/08/21 09:04:47;;;;;;;10.80;2.40;;;21.40;99.90;;;;;;5001895;28;20022;-55
2022/08/21 09:07:38;;;;;;;8.80;2.38;;;21.40;99.90;;;;;;5008559;28;20077;-55
2022/08/21 09:10:04;;;;;;;7.40;1.40;;;21.40;99.90;;;;;;5008521;28;20041;-56
2022/08/21 09:13:00;;;;;;;10.90;1.63;;;21.50;99.90;;;;;;5005805;28;20498;-56
2022/08/21 09:16:24;;;;;;;12.38;1.83;;;21.60;99.90;;;;;;5003866;28;20057;-57
2022/08/21 09:19:07;;;;;;;23.35;6.97;;;21.70;99.90;;;;;;4985100;28;20526;-55
2022/08/21 09:21:42;;;;;;;18.30;4.80;;;21.90;99.90;;;;;;5006253;28;20872;-56
2022/08/21 09:24:30;;;;;;;9.15;2.13;;;21.90;99.90;;;;;;5028218;22;20053;-64
2022/08/21 09:27:08;;;;;;;48.97;11.98;;;22.10;99.90;;;;;;5020332;28;20032;-64
2022/08/21 09:29:50;;;;;;;36.88;12.60;;;22.20;99.90;;;;;;5021063;28;20031;-64
2022/08/21 09:32:29;;;;;;;12.82;3.38;;;22.30;99.90;;;;;;5027376;28;20017;-64
2022/08/21 09:35:19;;;;;;;9.52;3.58;;;22.50;99.90;;;;;;5021954;28;20104;-64
2022/08/21 09:37:59;;;;;;;8.73;3.20;;;22.70;99.90;;;;;;5028971;28;20044;-64
2022/08/21 09:40:36;;;;;;;12.13;1.85;;;22.60;99.90;;;;;;5028031;28;20025;-64
2022/08/21 09:43:10;;;;;;;14.07;3.63;;;22.70;99.90;;;;;;5029539;28;20487;-63
2022/08/21 09:45:36;;;;;;;;;;;22.90;99.90;;;;;;5027895;28;20099;-64
2022/08/21 09:48:15;;;;;;;28.05;8.18;;;23.00;99.90;;;;;;5029516;28;19909;-66
2022/08/21 09:50:47;;;;;;;35.08;10.25;;;23.00;99.90;;;;;;5009493;28;20785;-64
2022/08/21 09:53:29;;;;;;;9.25;2.33;;;23.20;99.90;;;;;;5026439;28;20132;-64
2022/08/21 09:58:48;;;;;;;8.90;1.90;;;23.50;99.90;;;;;;5029207;28;20091;-64
2022/08/21 10:01:21;;;;;;;6.88;1.30;;;23.50;99.90;;;;;;5023314;28;20157;-64
2022/08/21 10:03:47;;;;;;;10.77;1.80;;;23.80;99.90;;;;;;5022060;28;20033;-64
2022/08/21 10:06:23;;;;;;;7.90;1.75;;;23.60;99.90;;;;;;5038002;28;20057;-64
2022/08/21 10:08:48;;;;;;;10.35;1.77;;;23.90;99.90;;;;;;5019469;28;20036;-64
2022/08/21 10:11:16;;;;;;;19.05;2.30;;;23.60;99.90;;;;;;5028213;28;20028;-66
2022/08/21 10:14:09;;;;;;;3.20;1.38;;;23.50;99.90;;;;;;5021998;28;20025;-66
2022/08/21 10:16:59;;;;;;;9.95;2.28;;;23.90;99.90;;;;;;5022213;28;20044;-66
2022/08/21 10:19:39;;;;;;;5.32;1.83;;;24.10;99.90;;;;;;5033590;28;20025;-66
2022/08/21 10:22:34;;;;;;;6.03;1.35;;;24.20;99.90;;;;;;5028287;28;20037;-66
2022/08/21 10:25:14;;;;;;;8.48;1.95;;;24.40;99.90;;;;;;5021047;28;20095;-66
2022/08/21 10:28:05;;;;;;;4.72;1.80;;;24.70;99.90;;;;;;5025903;28;20033;-67
2022/08/21 10:30:51;;;;;;;6.70;1.77;;;25.00;99.90;;;;;;5031071;28;20070;-67
2022/08/21 10:33:26;;;;;;;6.93;1.60;;;25.00;99.90;;;;;;5034780;28;20111;-67
2022/08/21 10:36:12;;;;;;;7.45;2.25;;;25.20;99.90;;;;;;5025660;28;20026;-67
2022/08/21 10:38:53;;;;;;;10.05;1.63;;;25.20;99.90;;;;;;5030259;28;20036;-68
2022/08/21 10:41:45;;;;;;;8.40;1.80;;;25.20;99.90;;;;;;5029561;28;20037;-67
2022/08/21 10:44:48;;;;;;;11.57;1.88;;;25.30;99.90;;;;;;5029912;28;20112;-67
2022/08/21 10:47:32;;;;;;;13.80;2.83;;;25.70;99.90;;;;;;5033450;28;20179;-67
2022/08/21 10:50:37;;;;;;;6.93;1.37;;;25.90;99.90;;;;;;5025472;28;20061;-67
2022/08/21 10:53:17;;;;;;;4.33;1.67;;;26.10;99.90;;;;;;5023085;28;20038;-65
2022/08/21 10:55:56;;;;;;;3.90;1.10;;;26.20;99.90;;;;;;5030116;28;20091;-65
2022/08/21 10:58:30;;;;;;;5.00;1.20;;;26.30;99.90;;;;;;5027809;28;20044;-67
2022/08/21 11:01:11;;;;;;;7.68;1.80;;;26.30;99.90;;;;;;5024199;28;20434;-67
2022/08/21 11:03:43;;;;;;;9.40;1.73;;;26.00;99.90;;;;;;5022360;28;20128;-68
2022/08/21 11:06:19;;;;;;;9.27;1.63;;;25.80;99.90;;;;;;5023687;28;20395;-68
2022/08/21 11:08:50;;;;;;;8.80;2.58;;;25.80;99.90;;;;;;5024005;28;20030;-66
2022/08/21 11:11:22;;;;;;;10.93;1.50;;;25.60;99.90;;;;;;5021965;28;20029;-67
2022/08/21 11:13:59;;;;;;;5.43;1.30;;;25.80;99.90;;;;;;5027480;28;20522;-68
2022/08/21 11:16:41;;;;;;;6.32;1.48;;;26.10;99.90;;;;;;5028696;28;20047;-67
2022/08/21 11:19:58;;;;;;;5.45;1.13;;;26.30;99.90;;;;;;5031295;28;20028;-68
2022/08/21 11:22:37;;;;;;;4.82;1.02;;;26.30;99.90;;;;;;4980862;28;20117;-68
2022/08/21 11:25:27;;;;;;;10.02;1.73;;;26.40;99.90;;;;;;4977942;28;20062;-68
2022/08/21 11:28:01;;;;;;;8.25;1.10;;;26.50;99.90;;;;;;5007849;28;20113;-67
2022/08/21 11:30:50;;;;;;;5.55;1.33;;;26.40;99.90;;;;;;5024009;28;20391;-67
2022/08/21 11:33:46;;;;;;;3.88;1.17;;;26.40;99.90;;;;;;4994564;28;20045;-67
2022/08/21 11:36:23;;;;;;;4.18;0.90;;;26.20;99.90;;;;;;5021046;28;20048;-67
2022/08/21 11:39:10;;;;;;;7.28;1.23;;;26.30;99.90;;;;;;5024880;28;20087;-67
2022/08/21 11:41:43;;;;;;;6.70;0.95;;;26.50;99.90;;;;;;5025322;28;20071;-67
2022/08/21 11:44:08;;;;;;;6.03;1.23;;;26.20;99.90;;;;;;5020238;28;20063;-67
2022/08/21 11:47:02;;;;;;;6.05;1.55;;;26.10;99.90;;;;;;5025722;28;20038;-68
2022/08/21 11:49:39;;;;;;;5.38;1.35;;;25.90;99.90;;;;;;5021782;28;20036;-67
2022/08/21 11:52:24;;;;;;;7.63;1.23;;;26.40;99.90;;;;;;5023737;28;20411;-67
2022/08/21 11:54:54;;;;;;;;;;;26.50;99.90;;;;;;5027025;28;20479;-67
2022/08/21 11:57:28;;;;;;;7.88;1.23;;;26.50;99.90;;;;;;5024095;28;19920;-67
2022/08/21 12:00:00;;;;;;;;;;;26.70;99.90;;;;;;5022584;28;20040;-68
2022/08/21 12:02:33;;;;;;;6.32;1.00;;;27.30;99.90;;;;;;5034070;28;19928;-68
2022/08/21 12:05:09;;;;;;;10.45;1.63;;;28.00;99.90;;;;;;5031575;28;20117;-68
2022/08/21 12:07:44;;;;;;;7.30;1.63;;;28.20;99.90;;;;;;5029907;28;20349;-68
2022/08/21 12:10:21;;;;;;;10.63;1.98;;;28.00;99.70;;;;;;5027094;28;22008;-67
2022/08/21 12:12:47;;;;;;;5.43;0.90;;;28.40;98.20;;;;;;5024393;28;20071;-68
2022/08/21 12:15:22;;;;;;;4.30;0.88;;;28.60;97.20;;;;;;5021394;28;20026;-67
2022/08/21 12:18:14;;;;;;;6.68;1.20;;;28.80;96.20;;;;;;5021059;28;20105;-68
2022/08/21 12:20:57;;;;;;;4.03;0.90;;;29.00;95.50;;;;;;5016131;28;20117;-67
2022/08/21 12:23:32;;;;;;;4.40;1.00;;;29.00;96.40;;;;;;5028411;28;20486;-68
2022/08/21 12:26:23;;;;;;;4.43;1.13;;;29.10;95.00;;;;;;5024639;28;20083;-67
2022/08/21 12:28:49;;;;;;;4.03;1.10;;;28.80;96.20;;;;;;5024294;28;20041;-68
2022/08/21 12:31:25;;;;;;;3.00;0.90;;;28.90;94.80;;;;;;5024360;28;20036;-67
2022/08/21 12:33:58;;;;;;;5.07;1.10;;;28.80;95.00;;;;;;5025216;28;20033;-67
2022/08/21 12:36:30;;;;;;;5.13;1.77;;;28.40;94.90;;;;;;5024216;28;20057;-67
2022/08/21 12:39:06;;;;;;;7.57;1.10;;;28.30;95.00;;;;;;5030328;28;20041;-68
2022/08/21 12:41:43;;;;;;;6.00;1.10;;;28.30;95.10;;;;;;5032849;28;20029;-67
2022/08/21 12:44:14;;;;;;;4.13;1.00;;;28.30;95.90;;;;;;5024517;28;20400;-67
2022/08/21 12:46:54;;;;;;;4.85;1.40;;;28.60;94.80;;;;;;5024700;28;20087;-67
2022/08/21 12:49:35;;;;;;;7.85;1.15;;;28.70;94.70;;;;;;5026989;28;20067;-67
2022/08/21 12:52:03;;;;;;;3.00;0.90;;;28.70;94.20;;;;;;5022719;28;20034;-67
2022/08/21 12:54:32;;;;;;;3.35;0.90;;;28.60;94.00;;;;;;5019779;28;20127;-66